Time;durP1;ratioP1;P1;durP2;ratioP2;P2;SDS_P1;SDS_P2;PMS_P1;PMS_P2;Temp;Humidity;BMP_temperature;BMP_pressure;BME280_temperature;BME280_humidity;BME280_pressure;Samples;Min_cycle;Max_cycle;Signal;HPM_P1;HPM_P2
2021/08/31 00:00:13;;;;;;;1.43;1.33;;;;;;;22.47;90.24;97565.47;4990288;28;20230;-66
2021/08/31 00:02:40;;;;;;;1.40;1.30;;;;;;;22.47;90.11;97564.63;4994389;28;20219;-65
2021/08/31 00:05:08;;;;;;;1.60;1.50;;;;;;;22.42;90.18;97564.50;4993639;28;20210;-66
2021/08/31 00:07:35;;;;;;;1.40;1.30;;;;;;;22.47;90.16;97570.59;4991805;28;20242;-63
2021/08/31 00:10:02;;;;;;;1.13;1.10;;;;;;;22.47;90.16;97564.63;4994632;28;20675;-66
2021/08/31 00:12:28;;;;;;;1.40;1.30;;;;;;;22.47;90.19;97572.31;4997388;28;20808;-65
2021/08/31 00:14:55;;;;;;;1.40;1.30;;;;;;;22.47;90.04;97568.03;4994410;28;20281;-65
2021/08/31 00:17:22;;;;;;;1.57;1.47;;;;;;;21.38;89.86;97390.16;4997189;28;20769;-65
2021/08/31 00:19:49;;;;;;;1.40;1.30;;;;;;;22.46;90.18;97581.66;4995792;28;20624;-66
2021/08/31 00:22:15;;;;;;;1.43;1.33;;;;;;;21.79;89.65;97468.03;5002657;28;20318;-66
2021/08/31 00:24:42;;;;;;;1.40;1.30;;;;;;;22.47;89.95;97582.56;4993871;28;20241;-66
2021/08/31 00:27:08;;;;;;;1.37;1.27;;;;;;;22.48;90.16;97586.84;4993027;28;20361;-66
2021/08/31 00:29:35;;;;;;;1.40;1.30;;;;;;;22.48;90.24;97590.28;4993324;28;20241;-66
2021/08/31 00:32:02;;;;;;;1.60;1.50;;;;;;;22.46;90.20;97586.78;4992199;28;20310;-67
2021/08/31 00:34:28;;;;;;;1.33;1.23;;;;;;;21.37;90.00;97401.22;4995346;28;20276;-66
2021/08/31 00:36:55;;;;;;;1.27;1.20;;;;;;;22.47;90.25;97591.06;4993657;28;20300;-66
2021/08/31 00:39:22;;;;;;;1.43;1.33;;;;;;;22.46;89.80;97591.91;4992810;28;20234;-66
2021/08/31 00:41:48;;;;;;;1.47;1.37;;;;;;;21.38;90.03;97413.16;4993303;28;20270;-65
2021/08/31 00:44:19;;;;;;;1.40;1.30;;;;;;;22.45;90.23;97592.75;4987524;28;20286;-65
2021/08/31 00:46:47;;;;;;;1.50;1.40;;;;;;;22.44;90.37;97596.13;4993847;28;20291;-66
2021/08/31 00:49:13;;;;;;;1.40;1.30;;;;;;;22.22;90.89;97565.66;4999782;28;20240;-65
2021/08/31 00:51:40;;;;;;;1.10;1.10;;;;;;;21.87;90.48;97504.09;5000673;28;20266;-65
2021/08/31 00:54:07;;;;;;;1.97;1.30;;;;;;;22.26;90.37;97572.59;4992405;28;20290;-64
2021/08/31 00:56:33;;;;;;;1.30;1.20;;;;;;;21.32;90.59;97418.09;4997788;28;20572;-66
2021/08/31 00:59:00;;;;;;;2.00;1.30;;;;;;;22.36;90.39;97592.50;4993192;28;20208;-64
2021/08/31 01:01:27;;;;;;;1.40;1.30;;;;;;;22.43;90.41;97609.75;4983690;28;20252;-66
2021/08/31 01:03:54;;;;;;;1.33;1.23;;;;;;;21.86;90.55;97503.22;4988825;28;20203;-65
2021/08/31 01:06:21;;;;;;;1.73;1.30;;;;;;;22.37;90.59;97590.78;4997305;28;20241;-65
2021/08/31 01:08:48;;;;;;;1.40;1.30;;;;;;;22.44;90.42;97610.63;4992480;28;20282;-66
2021/08/31 01:14:02;;;;;;;1.30;1.20;;;;;;;22.45;90.38;97604.69;4952376;26;20228;-67
2021/08/31 01:16:29;;;;;;;1.53;1.30;;;;;;;22.43;90.31;97594.41;4958170;28;20635;-68
2021/08/31 01:18:56;;;;;;;1.30;1.20;;;;;;;22.44;90.36;97597.84;4958661;28;20299;-68
2021/08/31 01:21:22;;;;;;;1.50;1.40;;;;;;;22.03;90.37;97521.59;4967103;28;20697;-67
2021/08/31 01:23:49;;;;;;;1.53;1.43;;;;;;;21.47;90.37;97441.53;4972927;28;20565;-68
2021/08/31 01:26:16;;;;;;;3.10;1.30;;;;;;;22.23;90.22;97569.09;4960887;28;20663;-68
2021/08/31 01:28:43;;;;;;;1.40;1.30;;;;;;;22.26;90.32;97566.63;4953480;28;20204;-68
2021/08/31 01:31:09;;;;;;;1.30;1.20;;;;;;;22.01;90.58;97539.47;4964247;28;20336;-68
2021/08/31 01:33:36;;;;;;;1.83;1.27;;;;;;;22.08;90.29;97550.75;4974517;28;20602;-68
2021/08/31 01:36:18;;;;;;;1.50;1.40;;;;;;;22.45;90.43;97609.81;4966517;28;20701;-69
2021/08/31 01:38:45;;;;;;;1.10;1.10;;;;;;;21.57;90.34;97466.56;4968751;28;20218;-69
2021/08/31 01:41:11;;;;;;;2.57;1.50;;;;;;;22.44;90.28;97634.53;4970165;28;20204;-68
2021/08/31 01:43:38;;;;;;;1.40;1.30;;;;;;;22.35;90.30;97592.47;4968425;28;20601;-68
2021/08/31 01:46:05;;;;;;;1.53;1.43;;;;;;;21.60;90.19;97465.78;4967266;28;20236;-68
2021/08/31 01:48:32;;;;;;;1.40;1.30;;;;;;;21.54;90.00;97453.69;4968937;28;20699;-68
2021/08/31 01:50:58;;;;;;;1.23;1.23;;;;;;;22.19;90.45;97570.69;4972775;28;20286;-68
2021/08/31 01:53:25;;;;;;;1.30;1.30;;;;;;;21.49;90.21;97452.69;4951053;28;20278;-67
2021/08/31 01:55:51;;;;;;;1.60;1.27;;;;;;;21.94;90.23;97529.91;4966867;28;20203;-68
2021/08/31 01:58:18;;;;;;;1.13;1.10;;;;;;;22.43;90.38;97603.75;4969529;28;20678;-68
2021/08/31 02:00:44;;;;;;;1.23;1.13;;;;;;;22.00;90.12;97527.50;4962071;28;20668;-69
2021/08/31 02:03:11;;;;;;;1.50;1.40;;;;;;;21.33;90.30;97414.75;4980217;28;20223;-68
2021/08/31 02:05:38;;;;;;;1.40;1.30;;;;;;;22.26;89.99;97575.13;4974430;28;20228;-68
2021/08/31 02:08:05;;;;;;;1.50;1.40;;;;;;;22.16;90.18;97557.81;4968660;28;20290;-68
2021/08/31 02:10:32;;;;;;;1.57;1.30;;;;;;;22.44;90.26;97600.41;4970224;28;20253;-68
2021/08/31 02:12:59;;;;;;;1.40;1.30;;;;;;;22.45;90.26;97597.88;4978902;28;20321;-68
2021/08/31 02:15:25;;;;;;;1.50;1.40;;;;;;;22.42;90.51;97599.47;4954978;28;20290;-68
2021/08/31 02:17:52;;;;;;;1.50;1.40;;;;;;;22.45;90.41;97604.69;4962717;28;20259;-68
2021/08/31 02:20:19;;;;;;;1.23;1.17;;;;;;;21.90;90.29;97516.97;4970196;28;20269;-69
2021/08/31 02:22:45;;;;;;;1.43;1.33;;;;;;;22.19;90.37;97557.00;4964900;28;20281;-68
2021/08/31 02:25:12;;;;;;;1.40;1.30;;;;;;;22.28;90.54;97568.38;4965646;28;20238;-68
2021/08/31 02:27:38;;;;;;;1.30;1.20;;;;;;;22.45;90.38;97597.00;4961311;28;20204;-68
2021/08/31 02:30:09;;;;;;;1.30;1.20;;;;;;;21.80;90.29;97485.16;4960478;28;20255;-69
2021/08/31 02:32:35;;;;;;;1.40;1.30;;;;;;;22.31;90.31;97580.38;4962573;28;20307;-68
2021/08/31 02:35:02;;;;;;;1.33;1.23;;;;;;;21.49;90.58;97450.13;4971136;28;20302;-68
2021/08/31 02:37:29;;;;;;;1.30;1.20;;;;;;;22.32;90.72;97585.53;4970629;28;20322;-68
2021/08/31 02:39:55;;;;;;;1.40;1.30;;;;;;;21.77;90.79;97502.09;4966986;28;20204;-68
2021/08/31 02:42:22;;;;;;;1.40;1.30;;;;;;;22.03;90.58;97544.63;4947636;28;20760;-67
2021/08/31 02:44:49;;;;;;;1.30;1.20;;;;;;;21.44;90.49;97445.72;4969388;28;20231;-67
2021/08/31 02:47:17;;;;;;;1.40;1.30;;;;;;;22.43;90.59;97603.75;4967080;28;20200;-67
2021/08/31 02:49:45;;;;;;;1.30;1.20;;;;;;;22.42;90.61;97602.03;4963654;28;20243;-67
2021/08/31 02:52:11;;;;;;;1.23;1.23;;;;;;;22.24;90.61;97575.94;4967575;28;20220;-67
2021/08/31 02:54:38;;;;;;;2.23;1.30;;;;;;;22.42;90.67;97604.59;4958080;28;20296;-67
2021/08/31 02:57:04;;;;;;;1.40;1.30;;;;;;;21.80;90.46;97497.06;4963554;28;20242;-68
2021/08/31 02:59:31;;;;;;;1.30;1.20;;;;;;;22.40;90.61;97604.56;4970201;28;20293;-67
2021/08/31 03:02:04;;;;;;;1.50;1.40;;;;;;;22.17;90.57;97558.69;4952930;28;20220;-67
2021/08/31 03:04:36;;;;;;;1.40;1.30;;;;;;;22.42;90.51;97602.91;4966292;28;20204;-67
2021/08/31 03:07:07;;;;;;;1.30;1.20;;;;;;;21.91;90.58;97514.47;4970850;28;20242;-65
2021/08/31 03:09:34;;;;;;;1.30;1.20;;;;;;;21.57;90.33;97470.81;4959752;28;20637;-67
2021/08/31 03:12:00;;;;;;;1.30;1.20;;;;;;;22.42;90.55;97607.16;4958634;28;20302;-67
2021/08/31 03:14:28;;;;;;;1.37;1.27;;;;;;;22.34;89.87;97598.38;4970588;28;20246;-67
2021/08/31 03:16:55;;;;;;;1.93;1.30;;;;;;;21.98;90.36;97536.81;4961009;28;20589;-67
2021/08/31 03:19:24;;;;;;;1.40;1.30;;;;;;;22.43;90.65;97614.88;4958701;28;20243;-68
2021/08/31 03:21:54;;;;;;;1.30;1.30;;;;;;;22.07;90.49;97554.13;4961592;28;20263;-67
2021/08/31 03:24:21;;;;;;;1.00;1.00;;;;;;;21.51;90.41;97456.19;4956708;28;20231;-67
2021/08/31 03:26:47;;;;;;;1.37;1.27;;;;;;;22.26;90.28;97582.81;4962523;28;20638;-67
2021/08/31 03:29:14;;;;;;;1.40;1.30;;;;;;;22.26;90.48;97592.22;4964124;28;20652;-67
2021/08/31 03:31:41;;;;;;;1.57;1.27;;;;;;;22.43;90.85;97617.44;4946901;28;20298;-69
2021/08/31 03:34:07;;;;;;;1.40;1.30;;;;;;;21.58;90.31;97485.31;4956445;28;20281;-67
2021/08/31 03:36:34;;;;;;;2.53;1.33;;;;;;;22.44;90.22;97623.44;4963507;28;20211;-67
2021/08/31 03:39:01;;;;;;;1.30;1.20;;;;;;;22.34;90.57;97604.38;4957196;28;20286;-67
2021/08/31 03:41:27;;;;;;;1.30;1.20;;;;;;;21.44;90.16;97461.06;4962018;28;20287;-68
2021/08/31 03:43:54;;;;;;;1.40;1.30;;;;;;;22.41;90.45;97626.78;4962434;28;20236;-67
2021/08/31 03:46:20;;;;;;;1.40;1.30;;;;;;;22.42;90.53;97628.53;4963043;28;21380;-67
2021/08/31 03:48:47;;;;;;;1.40;1.30;;;;;;;22.06;90.44;97568.63;4963667;28;20747;-67
2021/08/31 03:51:14;;;;;;;1.30;1.20;;;;;;;22.19;90.50;97606.53;4956781;28;20208;-69
2021/08/31 03:53:41;;;;;;;1.10;1.10;;;;;;;22.44;90.48;97646.50;4963657;28;20223;-67
2021/08/31 03:56:08;;;;;;;1.40;1.30;;;;;;;22.42;90.44;97641.34;4959341;28;20286;-67
2021/08/31 03:58:34;;;;;;;1.40;1.30;;;;;;;22.26;90.36;97610.97;4968718;28;20259;-70
2021/08/31 04:01:01;;;;;;;1.50;1.40;;;;;;;22.43;90.19;97649.84;4962761;28;20231;-67
2021/08/31 04:03:28;;;;;;;1.50;1.40;;;;;;;22.41;90.36;97644.69;4968321;28;20275;-68
2021/08/31 04:05:54;;;;;;;1.40;1.30;;;;;;;22.43;90.48;97657.53;4968475;28;20199;-65
2021/08/31 04:08:21;;;;;;;1.40;1.30;;;;;;;22.41;90.56;97661.78;4961200;28;20227;-68
2021/08/31 04:10:47;;;;;;;3.57;1.20;;;;;;;22.17;90.10;97617.56;4968563;28;20204;-68
2021/08/31 04:13:17;;;;;;;1.30;1.20;;;;;;;21.52;90.86;97510.72;4965367;28;20235;-66
2021/08/31 04:15:47;;;;;;;1.30;1.20;;;;;;;22.41;90.71;97659.22;4968654;28;20199;-68
2021/08/31 04:18:14;;;;;;;1.40;1.30;;;;;;;22.00;90.77;97598.28;4966738;28;20215;-68
2021/08/31 04:20:41;;;;;;;1.40;1.30;;;;;;;21.76;90.61;97569.44;4967004;28;20228;-67
2021/08/31 04:23:07;;;;;;;1.30;1.20;;;;;;;21.55;90.58;97528.72;4951251;28;20657;-67
2021/08/31 04:25:34;;;;;;;1.27;1.17;;;;;;;22.35;90.79;97672.69;4969265;28;20200;-69
2021/08/31 04:28:01;;;;;;;1.40;1.30;;;;;;;22.39;90.62;97678.78;4969746;28;20638;-67
2021/08/31 04:30:27;;;;;;;1.20;1.20;;;;;;;22.39;90.77;97683.91;4967893;28;20292;-67
2021/08/31 04:32:54;;;;;;;1.10;1.10;;;;;;;22.39;90.85;97678.78;4966899;28;20314;-67
2021/08/31 04:35:21;;;;;;;1.77;1.30;;;;;;;22.39;90.66;97677.09;4969642;28;20215;-68
2021/08/31 04:37:47;;;;;;;1.90;1.20;;;;;;;22.18;90.68;97643.22;4961193;28;20228;-70
2021/08/31 04:40:14;;;;;;;1.77;1.30;;;;;;;22.34;90.42;97670.09;4958977;28;20246;-70
2021/08/31 04:42:41;;;;;;;1.40;1.30;;;;;;;22.39;90.88;97684.78;4968874;28;20286;-70
2021/08/31 04:45:08;;;;;;;1.03;1.03;;;;;;;22.20;90.94;97638.97;4959936;28;20204;-70
2021/08/31 04:47:34;;;;;;;1.40;1.30;;;;;;;22.24;91.01;97645.06;4966733;28;20657;-70
2021/08/31 04:50:01;;;;;;;1.20;1.20;;;;;;;22.33;91.13;97661.56;4962387;28;20650;-70
2021/08/31 04:52:27;;;;;;;1.20;1.20;;;;;;;21.08;90.75;97447.22;4966760;28;20266;-70
2021/08/31 04:54:56;;;;;;;2.03;1.10;;;;;;;22.35;91.13;97667.56;4966704;28;20286;-70
2021/08/31 04:57:23;;;;;;;1.30;1.20;;;;;;;22.25;90.78;97642.53;4963846;28;20262;-70
2021/08/31 04:59:49;;;;;;;1.40;1.30;;;;;;;21.99;90.93;97607.66;4948095;28;20643;-71
2021/08/31 05:02:16;;;;;;;1.10;1.10;;;;;;;22.41;90.90;97675.44;4960635;28;20281;-73
2021/08/31 05:04:43;;;;;;;1.40;1.30;;;;;;;22.43;90.73;97676.34;4963337;28;20685;-70
2021/08/31 05:07:11;;;;;;;1.00;1.00;;;;;;;22.44;90.82;97680.63;4958522;28;20204;-69
2021/08/31 05:09:42;;;;;;;1.40;1.30;;;;;;;22.30;90.80;97666.59;4961676;28;20212;-70
2021/08/31 05:12:09;;;;;;;1.77;1.40;;;;;;;22.18;90.71;97650.88;4957937;28;20243;-69
2021/08/31 05:14:35;;;;;;;1.40;1.30;;;;;;;21.52;90.55;97546.50;4974495;28;20208;-71
2021/08/31 05:17:03;;;;;;;1.37;1.27;;;;;;;22.32;90.65;97676.88;4970602;28;20254;-69
2021/08/31 05:19:29;;;;;;;1.13;1.13;;;;;;;22.27;90.70;97668.19;4964738;28;20282;-73
2021/08/31 05:21:57;;;;;;;1.30;1.20;;;;;;;22.46;90.47;97711.41;4951513;28;20271;-70
2021/08/31 05:24:24;;;;;;;3.17;1.40;;;;;;;22.48;90.99;97709.78;4964444;28;20203;-70
2021/08/31 05:26:51;;;;;;;2.93;1.37;;;;;;;22.45;90.47;97707.13;4967665;28;20262;-70
2021/08/31 05:29:17;;;;;;;1.47;1.37;;;;;;;22.38;90.44;97700.94;4966192;28;20235;-69
2021/08/31 05:31:44;;;;;;;3.17;1.67;;;;;;;22.48;90.29;97712.31;4966623;28;20801;-73
2021/08/31 05:34:11;;;;;;;1.70;1.60;;;;;;;22.49;90.13;97722.63;4969837;28;20200;-70
2021/08/31 05:36:38;;;;;;;1.80;1.70;;;;;;;22.43;89.73;97713.88;4970534;28;20623;-69
2021/08/31 05:39:06;;;;;;;2.13;1.93;;;;;;;21.55;89.74;97565.38;4967754;28;20251;-73
2021/08/31 05:41:33;;;;;;;2.40;1.77;;;;;;;22.46;89.72;97717.41;4966377;28;20352;-73
2021/08/31 05:44:01;;;;;;;1.90;1.80;;;;;;;22.50;89.58;97726.06;4967391;28;20200;-69
2021/08/31 05:46:28;;;;;;;2.07;1.93;;;;;;;22.51;89.57;97730.38;4971170;28;20642;-71
2021/08/31 05:48:54;;;;;;;2.43;2.00;;;;;;;22.23;89.62;97684.28;4964814;28;20216;-69
2021/08/31 05:51:21;;;;;;;6.63;2.40;;;;;;;22.24;88.72;97681.78;4961579;28;20287;-71
2021/08/31 05:53:47;;;;;;;4.90;2.13;;;;;;;22.50;89.28;97729.50;4970428;28;20227;-71
2021/08/31 05:56:14;;;;;;;2.27;2.07;;;;;;;22.51;89.32;97730.38;4968351;28;20298;-71
2021/08/31 05:58:40;;;;;;;2.37;2.17;;;;;;;22.40;89.29;97711.22;4971137;28;20219;-69
2021/08/31 06:01:07;;;;;;;3.07;2.20;;;;;;;22.15;89.16;97676.41;4969432;28;20626;-71
2021/08/31 06:03:34;;;;;;;2.60;2.40;;;;;;;22.53;88.95;97736.44;4966300;28;20660;-72
2021/08/31 06:06:01;;;;;;;5.20;2.43;;;;;;;22.54;88.87;97743.28;4965472;28;20203;-71
2021/08/31 06:08:31;;;;;;;3.13;2.50;;;;;;;22.33;88.71;97710.22;4969516;28;20208;-71
2021/08/31 06:10:57;;;;;;;3.23;2.93;;;;;;;22.45;88.59;97722.50;4958469;28;20275;-71
2021/08/31 06:13:24;;;;;;;3.60;3.13;;;;;;;22.46;88.90;97726.78;4967437;28;20254;-71
2021/08/31 06:15:50;;;;;;;3.60;3.30;;;;;;;22.50;88.81;97733.75;4954826;28;20203;-68
2021/08/31 06:18:17;;;;;;;3.37;3.00;;;;;;;22.46;89.29;97724.22;4968234;28;20255;-71
2021/08/31 06:20:43;;;;;;;7.37;3.50;;;;;;;22.54;89.03;97739.03;4963511;28;20223;-71
2021/08/31 06:23:11;;;;;;;4.63;2.90;;;;;;;22.50;88.96;97726.94;4964123;28;20247;-72
2021/08/31 06:25:38;;;;;;;4.00;3.40;;;;;;;22.53;88.92;97732.16;4960552;28;20299;-73
2021/08/31 06:28:04;;;;;;;4.17;3.30;;;;;;;22.56;88.99;97754.44;4968943;28;20231;-72
2021/08/31 06:30:31;;;;;;;9.00;3.73;;;;;;;22.56;88.80;97746.75;4971411;28;20302;-70
2021/08/31 06:32:57;;;;;;;5.13;4.00;;;;;;;22.53;88.79;97752.63;4967647;28;20251;-75
2021/08/31 06:35:24;;;;;;;5.30;3.63;;;;;;;22.53;88.62;97750.09;4970755;28;20203;-71
2021/08/31 06:37:51;;;;;;;4.27;3.47;;;;;;;22.55;88.81;97756.13;4962894;28;20322;-68
2021/08/31 06:40:17;;;;;;;5.70;3.83;;;;;;;22.42;88.70;97735.19;4966674;28;20207;-69
2021/08/31 06:42:44;;;;;;;4.30;3.90;;;;;;;22.50;88.85;97750.00;4970389;28;20310;-72
2021/08/31 06:45:11;;;;;;;3.90;3.60;;;;;;;22.52;88.71;97748.34;4968451;28;20736;-70
2021/08/31 06:47:37;;;;;;;4.47;3.70;;;;;;;22.48;88.85;97746.50;4971012;28;20631;-71
2021/08/31 06:50:04;;;;;;;4.37;3.50;;;;;;;22.24;88.86;97697.16;4952435;28;20263;-70
2021/08/31 06:52:31;;;;;;;4.00;3.60;;;;;;;22.47;88.95;97733.66;4961995;28;20258;-71
2021/08/31 06:54:57;;;;;;;5.67;3.83;;;;;;;22.57;88.95;97753.59;4965256;28;20234;-71
2021/08/31 06:57:24;;;;;;;4.97;3.50;;;;;;;22.57;88.73;97758.72;4961315;28;20299;-71
2021/08/31 06:59:51;;;;;;;4.10;3.70;;;;;;;22.57;88.96;97761.28;4965203;28;20311;-68
2021/08/31 07:02:17;;;;;;;4.57;3.67;;;;;;;22.57;89.05;97761.28;4965655;28;20311;-73
2021/08/31 07:04:44;;;;;;;5.37;3.80;;;;;;;22.57;88.80;97764.72;4968749;28;20234;-72
2021/08/31 07:07:11;;;;;;;4.20;3.80;;;;;;;22.45;89.04;97754.09;4963932;28;20286;-70
2021/08/31 07:09:38;;;;;;;4.03;3.50;;;;;;;22.53;88.97;97764.59;4969337;28;20204;-74
2021/08/31 07:14:47;;;;;;;4.80;3.73;;;;;;;22.58;89.24;97769.03;5000846;28;20202;-67
2021/08/31 07:17:15;;;;;;;4.30;4.00;;;;;;;22.57;88.95;97777.53;5003125;28;20649;-66
2021/08/31 07:19:42;;;;;;;3.90;3.60;;;;;;;22.58;88.84;97780.94;5004604;28;20353;-66
2021/08/31 07:22:08;;;;;;;4.13;3.83;;;;;;;22.57;89.07;97779.22;5005679;28;20199;-64
2021/08/31 07:24:35;;;;;;;4.27;3.60;;;;;;;22.57;89.17;97782.66;5008141;28;20237;-67
2021/08/31 07:27:02;;;;;;;4.40;4.00;;;;;;;22.58;89.13;97786.06;5001278;28;20226;-67
2021/08/31 07:29:28;;;;;;;4.03;3.70;;;;;;;22.58;89.47;97784.41;5004962;28;20289;-65
2021/08/31 07:31:55;;;;;;;4.27;3.87;;;;;;;22.58;89.01;97796.31;5004006;28;20194;-70
2021/08/31 07:34:21;;;;;;;3.90;3.60;;;;;;;22.44;89.15;97772.84;5002953;28;20333;-66
2021/08/31 07:36:48;;;;;;;4.27;3.87;;;;;;;22.59;89.09;97814.31;5007851;28;20621;-66
2021/08/31 07:39:15;;;;;;;5.73;3.63;;;;;;;22.59;88.95;97804.06;5008564;28;20304;-66
2021/08/31 07:41:41;;;;;;;4.70;4.00;;;;;;;22.59;89.08;97813.44;5004096;28;20211;-66
2021/08/31 07:44:08;;;;;;;4.20;3.47;;;;;;;22.59;88.71;97813.44;5007006;28;20833;-70
2021/08/31 07:46:34;;;;;;;4.57;4.07;;;;;;;22.60;89.06;97804.94;5004495;28;20289;-67
2021/08/31 07:49:01;;;;;;;4.60;4.00;;;;;;;22.59;89.05;97809.19;5005468;28;20293;-68
2021/08/31 07:51:27;;;;;;;4.47;3.80;;;;;;;22.60;89.03;97810.06;4999268;28;20296;-66
2021/08/31 07:53:54;;;;;;;7.00;3.77;;;;;;;22.62;89.09;97818.66;5006779;28;20300;-67
2021/08/31 07:56:20;;;;;;;6.17;3.87;;;;;;;22.61;89.04;97822.91;5005877;28;20301;-69
2021/08/31 07:58:47;;;;;;;4.80;4.30;;;;;;;22.61;88.99;97817.78;5006127;28;20666;-67
2021/08/31 08:01:13;;;;;;;5.97;3.93;;;;;;;22.62;88.93;97821.22;5007932;28;20735;-66
2021/08/31 08:03:40;;;;;;;7.07;4.57;;;;;;;22.62;89.04;97822.06;5006522;28;20633;-66
2021/08/31 08:06:07;;;;;;;5.40;4.10;;;;;;;22.62;89.05;97821.22;5006813;28;20720;-66
2021/08/31 08:08:33;;;;;;;4.63;4.07;;;;;;;22.62;89.24;97829.75;5006317;28;20650;-68
2021/08/31 08:11:00;;;;;;;6.40;4.50;;;;;;;22.62;88.90;97832.31;5004561;28;20223;-66
2021/08/31 08:13:26;;;;;;;9.70;4.87;;;;;;;22.63;88.92;97835.75;5005677;28;20614;-66
2021/08/31 08:15:53;;;;;;;4.60;4.20;;;;;;;22.62;88.95;97844.28;5005974;28;20238;-66
2021/08/31 08:18:20;;;;;;;6.00;4.73;;;;;;;22.63;88.92;97840.88;5003419;28;20303;-68
2021/08/31 08:20:46;;;;;;;4.87;4.07;;;;;;;22.63;88.70;97838.31;5006096;28;20419;-68
2021/08/31 08:23:13;;;;;;;5.50;4.73;;;;;;;22.63;88.96;97839.22;5002056;28;20261;-65
2021/08/31 08:25:39;;;;;;;5.77;4.40;;;;;;;22.63;88.79;97835.75;5006240;28;20221;-65
2021/08/31 08:28:18;;;;;;;4.60;4.20;;;;;;;22.65;88.95;97841.81;5004371;28;20284;-66
2021/08/31 08:30:44;;;;;;;7.47;4.90;;;;;;;22.65;88.71;97849.50;5006967;28;20285;-67
2021/08/31 08:33:11;;;;;;;5.67;4.63;;;;;;;22.65;88.93;97846.94;5006705;28;20313;-66
2021/08/31 08:35:37;;;;;;;5.00;4.33;;;;;;;22.65;88.65;97844.38;5006598;28;20281;-66
2021/08/31 08:38:04;;;;;;;6.60;4.57;;;;;;;22.65;88.85;97847.78;5005717;28;20654;-65
2021/08/31 08:40:34;;;;;;;6.10;4.40;;;;;;;22.64;88.92;97843.50;5006595;28;20294;-66
2021/08/31 08:43:04;;;;;;;6.87;4.70;;;;;;;22.64;88.76;97853.75;5009568;28;20501;-65
2021/08/31 08:45:32;;;;;;;4.90;4.37;;;;;;;22.63;88.76;97854.56;5010528;28;20202;-65
2021/08/31 08:47:58;;;;;;;5.87;4.67;;;;;;;22.63;88.84;97851.13;5009998;28;20285;-67
2021/08/31 08:50:25;;;;;;;11.03;5.43;;;;;;;22.61;88.17;97863.91;5001676;28;20206;-66
2021/08/31 08:52:51;;;;;;;9.10;5.33;;;;;;;22.60;88.15;97854.47;5006705;28;20257;-64
2021/08/31 08:55:20;;;;;;;6.07;4.70;;;;;;;22.59;87.89;97857.00;5011180;28;20371;-67
2021/08/31 08:57:47;;;;;;;6.10;4.77;;;;;;;22.59;88.28;97860.41;5009234;28;20289;-68
2021/08/31 09:00:14;;;;;;;7.27;4.67;;;;;;;22.59;88.72;97857.84;5011573;28;20256;-66
2021/08/31 09:02:43;;;;;;;5.77;4.90;;;;;;;22.59;88.85;97868.09;5008900;28;20758;-68
2021/08/31 09:05:11;;;;;;;6.73;4.80;;;;;;;22.59;88.91;97867.25;5001815;28;20234;-66
2021/08/31 09:07:39;;;;;;;6.00;4.93;;;;;;;22.59;89.03;97869.81;5003421;28;20663;-67
2021/08/31 09:10:23;;;;;;;7.43;5.00;;;;;;;22.59;88.94;97869.81;5004515;28;20191;-66
2021/08/31 09:12:51;;;;;;;7.73;5.10;;;;;;;22.58;89.17;97874.06;5008677;28;20226;-68
2021/08/31 09:15:24;;;;;;;6.77;4.90;;;;;;;22.59;89.10;97887.75;5000885;28;20228;-68
2021/08/31 09:18:13;;;;;;;7.63;5.13;;;;;;;22.58;89.11;97880.84;5004138;28;20297;-66
2021/08/31 09:20:47;;;;;;;5.20;4.70;;;;;;;22.59;89.17;97885.19;5003506;28;20195;-66
2021/08/31 09:23:20;;;;;;;4.90;4.40;;;;;;;22.58;89.30;97886.84;5007974;28;20312;-66
2021/08/31 09:25:51;;;;;;;7.80;5.30;;;;;;;22.59;89.01;97892.88;4999476;28;20226;-70
2021/08/31 09:28:31;;;;;;;6.40;4.80;;;;;;;22.58;89.22;97891.97;5000327;28;20206;-68
2021/08/31 09:30:58;;;;;;;6.30;4.40;;;;;;;22.57;89.13;97880.00;4994313;28;20672;-70
2021/08/31 09:33:26;;;;;;;8.93;4.83;;;;;;;22.57;89.16;97882.56;4994031;28;20222;-67
2021/08/31 09:36:03;;;;;;;6.83;5.17;;;;;;;22.57;89.13;97877.44;4992226;28;21126;-67
2021/08/31 09:38:46;;;;;;;6.10;4.37;;;;;;;22.57;89.28;97886.81;4992255;28;20225;-68
2021/08/31 09:41:28;;;;;;;5.67;4.63;;;;;;;22.57;89.40;97876.56;4989748;28;20305;-69
2021/08/31 09:43:56;;;;;;;5.00;4.43;;;;;;;22.52;89.09;97870.41;4992216;28;20261;-67
2021/08/31 09:46:23;;;;;;;6.47;4.43;;;;;;;22.56;89.20;97885.94;4990486;28;20246;-66
2021/08/31 09:48:49;;;;;;;8.13;4.60;;;;;;;22.56;89.22;97883.38;4994875;28;20475;-68
2021/08/31 09:51:16;;;;;;;4.97;4.47;;;;;;;22.56;89.30;97880.81;4992413;28;20290;-67
2021/08/31 09:53:43;;;;;;;6.93;4.70;;;;;;;22.51;89.12;97884.06;4991436;28;20288;-67
2021/08/31 09:56:11;;;;;;;6.20;4.53;;;;;;;22.55;89.33;97897.00;4990807;28;20573;-66
2021/08/31 09:58:39;;;;;;;8.87;5.10;;;;;;;22.55;89.24;97894.44;4988646;28;20985;-67
2021/08/31 10:01:06;;;;;;;8.43;4.93;;;;;;;22.37;88.96;97862.22;4990417;28;20211;-67
2021/08/31 10:03:33;;;;;;;6.43;4.70;;;;;;;22.50;89.38;97888.31;4991316;28;20230;-70
2021/08/31 10:06:02;;;;;;;6.40;4.30;;;;;;;22.50;89.17;97887.41;4991796;28;20206;-68
2021/08/31 10:08:31;;;;;;;5.67;4.57;;;;;;;21.47;89.02;97712.59;4972493;28;20214;-69
2021/08/31 10:10:59;;;;;;;7.10;4.33;;;;;;;22.54;89.33;97899.53;4990518;28;20230;-68
2021/08/31 10:13:26;;;;;;;4.73;4.23;;;;;;;22.35;89.28;97874.97;4987145;28;20644;-66
2021/08/31 10:15:57;;;;;;;4.80;4.10;;;;;;;22.54;89.35;97910.66;4974674;28;20261;-65
2021/08/31 10:18:25;;;;;;;5.40;4.37;;;;;;;22.54;89.42;97914.91;4991164;28;20261;-68
2021/08/31 10:20:53;;;;;;;7.20;4.40;;;;;;;22.53;89.37;97916.56;4993588;28;20206;-69
2021/08/31 10:23:52;;;;;;;6.37;4.30;;;;;;;22.53;89.44;97908.88;4989918;28;20223;-65
2021/08/31 10:26:35;;;;;;;6.03;4.27;;;;;;;22.53;89.26;97913.16;4953038;28;20628;-68
2021/08/31 10:29:16;;;;;;;4.83;4.17;;;;;;;22.52;89.54;97912.28;4988898;28;20534;-67
2021/08/31 10:31:44;;;;;;;4.77;4.10;;;;;;;22.52;89.43;97911.41;4990652;28;20231;-67
2021/08/31 10:34:29;;;;;;;5.77;4.10;;;;;;;22.52;89.48;97916.53;4990386;28;20769;-66
2021/08/31 10:37:02;;;;;;;4.80;4.10;;;;;;;22.52;89.45;97916.53;4992019;28;20234;-69
2021/08/31 10:39:44;;;;;;;5.87;4.23;;;;;;;22.51;89.63;97913.13;4991420;28;20592;-68
2021/08/31 10:42:12;;;;;;;4.87;4.37;;;;;;;22.52;89.50;97916.53;4990639;28;20695;-68
2021/08/31 10:44:43;;;;;;;5.73;4.70;;;;;;;22.52;89.54;97919.09;4991140;28;20199;-69
2021/08/31 10:47:14;;;;;;;5.33;4.03;;;;;;;22.51;89.59;97919.91;4990906;28;20268;-70
2021/08/31 10:49:56;;;;;;;6.60;4.23;;;;;;;22.51;89.72;97915.69;4992423;28;20305;-68
2021/08/31 10:52:43;;;;;;;5.33;4.37;;;;;;;22.51;89.52;97922.47;4988321;28;20294;-66
2021/08/31 10:55:18;;;;;;;4.97;4.13;;;;;;;22.50;89.74;97931.84;4986116;28;20225;-67
2021/08/31 10:57:45;;;;;;;5.73;4.27;;;;;;;22.51;89.65;97925.03;4991878;28;20289;-65
2021/08/31 11:00:15;;;;;;;5.33;4.30;;;;;;;22.50;89.73;97916.47;4990942;28;20226;-69
2021/08/31 11:02:50;;;;;;;6.43;4.60;;;;;;;22.50;89.53;97920.72;4993498;28;20229;-65
2021/08/31 11:05:26;;;;;;;6.37;4.57;;;;;;;22.51;89.77;97919.91;4990442;28;20214;-64
2021/08/31 11:08:16;;;;;;;4.60;4.10;;;;;;;22.51;89.84;97922.47;4992060;28;20225;-67
2021/08/31 11:10:43;;;;;;;5.67;4.07;;;;;;;22.34;89.68;97897.97;4982130;28;20303;-66
2021/08/31 11:13:16;;;;;;;4.90;3.90;;;;;;;22.49;89.75;97922.41;4957214;28;20230;-67
2021/08/31 11:15:44;;;;;;;6.87;4.20;;;;;;;22.50;89.68;97919.03;4990404;28;20210;-68
2021/08/31 11:18:12;;;;;;;5.77;3.97;;;;;;;22.50;89.69;97923.28;4993542;28;20656;-67
2021/08/31 11:20:39;;;;;;;4.73;3.80;;;;;;;22.50;89.76;97913.03;4991733;28;20791;-64
2021/08/31 11:23:07;;;;;;;4.47;4.07;;;;;;;22.49;89.74;97919.84;4990030;28;20317;-65
2021/08/31 11:25:34;;;;;;;4.23;3.83;;;;;;;22.48;89.69;97919.78;4989724;28;20289;-67
2021/08/31 11:28:02;;;;;;;4.63;3.67;;;;;;;22.47;89.72;97924.03;4990767;28;20234;-66
2021/08/31 11:30:46;;;;;;;5.40;4.13;;;;;;;22.47;89.76;97923.19;4974549;28;20241;-68
2021/08/31 11:33:26;;;;;;;5.70;3.93;;;;;;;22.46;89.98;97917.19;4988277;28;20309;-66
2021/08/31 11:36:00;;;;;;;5.43;3.93;;;;;;;22.45;90.05;97925.69;4991891;28;20290;-64
2021/08/31 11:38:29;;;;;;;4.90;4.37;;;;;;;22.44;90.07;97926.50;4991899;28;20290;-66
2021/08/31 11:40:55;;;;;;;4.10;3.70;;;;;;;22.44;90.04;97923.94;4986318;28;20305;-66
2021/08/31 11:43:31;;;;;;;5.27;4.13;;;;;;;22.45;90.09;97927.38;4990704;28;20318;-66